Vicar, Spain
Current Conditions -  °F | °C
As of 6:30 PM on Tuesday 21 Oct 2014 (Local Time) from LEAM Reporting Station
Light Fog Light Fog  
Wind Chill: 66°   Ceiling: 200
Heat Index: 66°   Visibility: 0.62mi
Dew Point: 66°   Wind: 0mph
Humidity: 100%   Direction: NA
Pressure: 30.18"   Gusts: NA
Location:  36.83°N, 2.64°W
Report Text: LEAM 211630Z 00000KT 1000 0300SW BCFG BKN002 19/19 Q1022
Loading
Personal Weather Stations






























Interactive Weather Map
Tropical Storm Tracking
New forecast layout! Learn more

10-Day Weather Forecast

Advertisements
Track Severe Weather on mobile